Time;durP1;ratioP1;P1;durP2;ratioP2;P2;SDS_P1;SDS_P2;PMS_P1;PMS_P2;Temp;Humidity;BMP_temperature;BMP_pressure;BME280_temperature;BME280_humidity;BME280_pressure;Samples;Min_cycle;Max_cycle;Signal;HPM_P1;HPM_P2
2021/12/23 00:02:10;;;;;;;22.70;10.65;;;-0.70;99.90;;;;;;6757834;87;20223;-75
2021/12/23 00:12:11;;;;;;;20.77;10.00;;;-0.70;99.90;;;;;;6754707;87;20213;-76
2021/12/23 00:32:31;;;;;;;21.30;10.55;;;-0.70;99.90;;;;;;6764430;87;20172;-77
2021/12/23 00:42:33;;;;;;;15.68;7.25;;;-0.60;99.90;;;;;;6763045;88;20212;-76
2021/12/23 00:52:36;;;;;;;25.67;11.43;;;-0.60;99.90;;;;;;6762658;88;20708;-76
2021/12/23 01:02:42;;;;;;;27.27;11.70;;;-0.70;99.90;;;;;;6758322;87;20184;-75
2021/12/23 01:12:48;;;;;;;25.93;11.97;;;-0.70;99.90;;;;;;6761576;88;20615;-75
2021/12/23 01:22:48;;;;;;;25.55;11.80;;;-0.70;99.90;;;;;;6761746;88;20695;-75
2021/12/23 01:32:50;;;;;;;22.60;10.70;;;-0.80;99.90;;;;;;6761311;87;20302;-75
2021/12/23 01:42:52;;;;;;;20.80;9.30;;;-0.80;99.90;;;;;;6758145;87;20183;-76
2021/12/23 01:52:59;;;;;;;20.52;8.65;;;-0.90;99.90;;;;;;6761344;88;20281;-75
2021/12/23 02:03:00;;;;;;;15.95;8.18;;;-0.80;99.90;;;;;;6761221;87;20733;-75
2021/12/23 02:13:03;;;;;;;21.05;10.35;;;-0.80;99.90;;;;;;6760090;87;20217;-76
2021/12/23 02:23:07;;;;;;;15.82;7.18;;;-0.80;99.90;;;;;;6760555;87;20175;-75
2021/12/23 02:33:07;;;;;;;22.13;10.73;;;-0.90;99.90;;;;;;6758309;87;20219;-76
2021/12/23 02:43:14;;;;;;;11.80;5.78;;;-0.80;99.90;;;;;;6760590;88;20708;-76
2021/12/23 02:53:15;;;;;;;25.65;10.88;;;-0.70;99.90;;;;;;6760790;88;20180;-75
2021/12/23 03:03:57;;;;;;;18.73;7.93;;;-0.60;99.90;;;;;;6787432;77;20153;-75
2021/12/23 03:13:58;;;;;;;24.55;11.02;;;-0.60;99.90;;;;;;6699670;87;20149;-76
2021/12/23 03:23:59;;;;;;;19.90;8.57;;;-0.60;99.90;;;;;;6768930;87;20181;-76
2021/12/23 03:33:59;;;;;;;25.85;11.85;;;-0.50;99.90;;;;;;6784512;87;20168;-76
2021/12/23 03:44:00;;;;;;;24.42;10.20;;;-0.40;99.90;;;;;;6784212;87;20460;-75
2021/12/23 03:54:01;;;;;;;11.68;4.45;;;-0.40;99.90;;;;;;6785974;87;20188;-76
2021/12/23 04:04:02;;;;;;;20.27;9.15;;;-0.50;99.90;;;;;;6767115;88;20187;-76
2021/12/23 04:14:03;;;;;;;26.05;11.10;;;-0.50;99.90;;;;;;6766844;88;20179;-75
2021/12/23 04:24:04;;;;;;;21.70;10.30;;;-0.50;99.90;;;;;;6766842;88;20220;-76
2021/12/23 04:34:05;;;;;;;27.45;12.80;;;-0.50;99.90;;;;;;6782243;87;20180;-76
2021/12/23 04:44:06;;;;;;;16.77;7.22;;;-0.50;99.90;;;;;;6782779;87;20172;-76
2021/12/23 04:54:06;;;;;;;28.02;12.05;;;-0.50;99.90;;;;;;6786349;87;21008;-76
2021/12/23 05:04:07;;;;;;;16.75;8.55;;;-0.50;99.90;;;;;;6785787;87;20193;-76
2021/12/23 05:14:08;;;;;;;20.75;9.85;;;-0.50;99.90;;;;;;6785880;87;20187;-75
2021/12/23 05:24:08;;;;;;;25.65;11.73;;;-0.50;99.90;;;;;;6711293;87;20211;-76
2021/12/23 05:34:09;;;;;;;21.77;9.75;;;-0.60;99.90;;;;;;6775889;87;20221;-75
2021/12/23 05:44:09;;;;;;;24.35;10.43;;;-0.60;99.90;;;;;;6697273;87;20167;-77
2021/12/23 05:54:10;;;;;;;14.65;5.85;;;-0.70;99.90;;;;;;6785647;87;20149;-76
2021/12/23 06:04:11;;;;;;;28.17;11.90;;;-0.70;99.90;;;;;;6785484;87;20649;-76
2021/12/23 06:14:11;;;;;;;23.15;11.35;;;-0.80;99.90;;;;;;6785176;87;20167;-75
2021/12/23 06:24:12;;;;;;;16.20;7.72;;;-0.80;99.90;;;;;;6765473;88;20173;-75
2021/12/23 06:34:12;;;;;;;17.48;8.40;;;-0.70;99.90;;;;;;6765393;88;20198;-76
2021/12/23 06:44:13;;;;;;;17.65;7.65;;;-0.70;99.90;;;;;;6765128;88;20165;-78
2021/12/23 06:54:15;;;;;;;24.65;9.90;;;-0.70;99.90;;;;;;6777104;87;20501;-76
2021/12/23 07:04:21;;;;;;;24.75;10.98;;;-0.60;99.90;;;;;;6784787;87;20160;-76
2021/12/23 07:14:22;;;;;;;20.02;8.55;;;-0.60;99.90;;;;;;6767419;88;20153;-79
2021/12/23 07:24:23;;;;;;;26.55;10.75;;;-0.50;99.90;;;;;;6767592;88;20177;-78
2021/12/23 07:34:24;;;;;;;17.37;8.63;;;-0.40;99.90;;;;;;6733000;88;20158;-77
2021/12/23 07:44:24;;;;;;;27.80;13.05;;;-0.40;99.90;;;;;;6732890;88;20219;-78
2021/12/23 07:54:25;;;;;;;24.00;11.05;;;-0.30;99.90;;;;;;6732874;88;20186;-79
2021/12/23 08:04:26;;;;;;;18.12;8.40;;;-0.30;99.90;;;;;;6746368;88;20197;-76
2021/12/23 08:14:26;;;;;;;25.05;10.68;;;-0.20;99.90;;;;;;6765449;88;20930;-76
2021/12/23 08:24:27;;;;;;;30.48;11.80;;;0.00;99.90;;;;;;6721398;88;20371;-76
2021/12/23 08:34:27;;;;;;;19.30;9.68;;;-0.10;99.90;;;;;;6706287;88;20517;-76
2021/12/23 08:44:28;;;;;;;14.73;6.18;;;0.00;99.90;;;;;;6715069;88;20263;-75
2021/12/23 08:54:29;;;;;;;24.98;11.25;;;0.10;99.90;;;;;;6761215;87;20291;-76
2021/12/23 09:04:29;;;;;;;17.30;7.78;;;0.20;99.90;;;;;;6773383;88;20187;-77
2021/12/23 09:14:31;;;;;;;23.35;9.30;;;0.40;99.90;;;;;;6776146;87;20205;-76
2021/12/23 09:24:32;;;;;;;22.55;10.10;;;0.40;99.90;;;;;;6776021;87;20171;-76
2021/12/23 09:34:32;;;;;;;24.00;10.68;;;0.60;99.90;;;;;;6761801;88;20184;-77
2021/12/23 09:44:33;;;;;;;26.02;11.88;;;0.70;99.90;;;;;;6758000;88;20840;-77
2021/12/23 09:54:41;;;;;;;17.67;7.78;;;1.10;99.90;;;;;;6755651;88;20218;-78
2021/12/23 10:04:42;;;;;;;20.02;8.50;;;1.40;99.90;;;;;;6755900;88;20297;-77
2021/12/23 10:46:28;;;;;;;29.37;12.13;;;2.10;99.90;;;;;;6686787;89;20191;-78
2021/12/23 11:07:10;;;;;;;21.15;9.30;;;2.10;99.90;;;;;;6686632;89;20224;-78
2021/12/23 11:37:48;;;;;;;16.92;7.53;;;2.10;99.90;;;;;;6703095;88;20233;-78
2021/12/23 11:47:49;;;;;;;15.85;7.00;;;2.20;99.90;;;;;;6692606;88;20219;-78
2021/12/23 11:57:52;;;;;;;17.30;8.57;;;2.40;99.90;;;;;;6700659;88;20320;-77
2021/12/23 12:08:11;;;;;;;24.83;11.63;;;2.60;99.90;;;;;;6686134;88;20184;-77
2021/12/23 12:18:23;;;;;;;29.15;12.00;;;2.80;99.90;;;;;;6684181;89;20202;-77
2021/12/23 12:28:27;;;;;;;23.25;9.13;;;2.90;99.90;;;;;;6688766;89;20203;-77
2021/12/23 12:38:34;;;;;;;30.67;12.73;;;3.00;99.90;;;;;;6706129;88;20211;-77
2021/12/23 12:49:09;;;;;;;;;;;3.20;99.90;;;;;;6687405;88;20245;-78
2021/12/23 12:59:11;;;;;;;23.52;10.95;;;3.30;99.90;;;;;;6678765;89;20058;-77
2021/12/23 13:09:14;;;;;;;23.23;10.90;;;3.50;99.90;;;;;;6702089;88;20335;-78
2021/12/23 13:19:17;;;;;;;27.55;11.80;;;3.60;99.90;;;;;;6689300;89;20188;-78
2021/12/23 13:29:21;;;;;;;27.48;10.85;;;3.70;99.90;;;;;;6728524;88;20180;-78
2021/12/23 13:39:30;;;;;;;29.12;11.88;;;3.90;99.90;;;;;;6778903;87;20237;-77
2021/12/23 13:49:37;;;;;;;23.77;9.68;;;4.10;99.90;;;;;;6774560;87;20250;-78
2021/12/23 13:59:38;;;;;;;20.77;9.25;;;4.10;99.90;;;;;;6688749;88;20213;-77
2021/12/23 14:10:00;;;;;;;23.55;10.63;;;4.10;99.90;;;;;;6765407;87;20172;-78
2021/12/23 14:30:38;;;;;;;22.87;10.68;;;4.00;99.90;;;;;;6775203;88;20437;-78
2021/12/23 14:40:39;;;;;;;21.27;9.32;;;4.00;99.90;;;;;;6775653;88;20269;-78
2021/12/23 14:50:51;;;;;;;21.98;9.38;;;4.20;99.90;;;;;;6774123;88;20200;-78
2021/12/23 15:00:53;;;;;;;27.23;10.93;;;4.20;99.90;;;;;;6757008;88;20234;-77
2021/12/23 15:11:03;;;;;;;27.55;12.43;;;4.20;99.90;;;;;;6765788;88;20585;-78
2021/12/23 15:21:10;;;;;;;29.52;13.50;;;4.20;99.90;;;;;;6769468;87;20239;-78
2021/12/23 15:31:16;;;;;;;27.73;13.27;;;4.20;99.90;;;;;;6769487;88;20184;-78
2021/12/23 15:41:17;;;;;;;;;;;4.30;99.90;;;;;;6735976;88;20719;-78
2021/12/23 15:51:17;;;;;;;29.00;12.55;;;4.40;99.90;;;;;;6732019;88;20049;-78
2021/12/23 16:01:18;;;;;;;22.75;10.95;;;4.50;99.90;;;;;;6759993;88;20238;-78
2021/12/23 16:11:18;;;;;;;28.25;12.15;;;4.50;99.90;;;;;;6768392;88;20215;-77
2021/12/23 16:21:19;;;;;;;26.33;12.63;;;4.60;99.90;;;;;;6731266;88;20284;-78
2021/12/23 16:31:22;;;;;;;27.60;12.82;;;4.50;99.90;;;;;;6766699;88;20179;-78
2021/12/23 16:41:23;;;;;;;29.90;12.65;;;4.50;99.90;;;;;;6763922;88;20224;-78
2021/12/23 16:51:24;;;;;;;29.83;13.45;;;4.50;99.90;;;;;;6767519;88;20219;-77
2021/12/23 17:01:24;;;;;;;31.02;14.98;;;4.40;99.90;;;;;;6767809;88;20211;-78
2021/12/23 17:11:25;;;;;;;37.97;15.00;;;4.50;99.90;;;;;;6768038;88;20200;-78
2021/12/23 17:31:45;;;;;;;33.38;13.90;;;4.50;99.90;;;;;;6765551;88;20210;-78
2021/12/23 17:41:45;;;;;;;28.02;13.80;;;4.80;99.90;;;;;;6767087;88;20220;-78
2021/12/23 17:51:46;;;;;;;28.73;12.90;;;4.80;99.90;;;;;;6765577;88;20215;-78
2021/12/23 18:01:46;;;;;;;30.15;14.75;;;4.70;99.90;;;;;;6767618;88;20599;-78
2021/12/23 18:11:47;;;;;;;30.30;13.98;;;4.80;99.90;;;;;;6765168;88;20195;-78
2021/12/23 18:21:48;;;;;;;28.92;12.68;;;5.10;99.90;;;;;;6770459;87;20204;-78
2021/12/23 18:31:49;;;;;;;27.87;13.00;;;5.20;99.90;;;;;;6767412;88;20357;-77
2021/12/23 18:41:51;;;;;;;26.33;12.23;;;5.50;99.90;;;;;;6682136;88;20211;-78
2021/12/23 18:51:52;;;;;;;26.45;12.52;;;5.50;99.90;;;;;;6768182;88;20207;-77
2021/12/23 19:01:59;;;;;;;29.40;12.73;;;5.50;99.90;;;;;;6767956;88;20264;-78
2021/12/23 19:11:59;;;;;;;32.78;13.68;;;5.70;99.90;;;;;;6765845;88;20187;-78
2021/12/23 19:22:00;;;;;;;25.27;12.32;;;5.80;99.90;;;;;;6763728;87;20196;-79
2021/12/23 19:32:00;;;;;;;25.08;12.55;;;5.90;99.90;;;;;;6760730;88;20319;-78
2021/12/23 19:42:01;;;;;;;31.12;12.02;;;5.80;99.90;;;;;;6765338;88;20223;-78
2021/12/23 19:52:03;;;;;;;29.55;13.77;;;5.60;99.90;;;;;;6765463;88;20235;-78
2021/12/23 20:02:03;;;;;;;21.98;9.98;;;5.80;99.90;;;;;;6764830;88;20203;-78
2021/12/23 20:12:04;;;;;;;17.42;8.90;;;6.30;99.90;;;;;;6765310;88;20247;-78
2021/12/23 20:22:05;;;;;;;18.40;8.82;;;6.60;99.90;;;;;;6766644;87;20715;-77
2021/12/23 20:32:07;;;;;;;9.25;4.72;;;7.00;99.90;;;;;;6767041;88;20187;-77
2021/12/23 20:42:07;;;;;;;13.43;7.30;;;7.30;99.90;;;;;;6779156;88;20495;-78
2021/12/23 20:52:08;;;;;;;16.62;7.03;;;7.40;99.90;;;;;;6773924;88;20212;-78
2021/12/23 21:02:10;;;;;;;14.68;6.85;;;7.40;99.90;;;;;;6770111;77;20375;-78
2021/12/23 21:12:12;;;;;;;12.40;5.87;;;7.50;99.90;;;;;;6757916;88;20189;-76
2021/12/23 21:22:13;;;;;;;9.32;4.60;;;7.60;99.90;;;;;;6759042;88;20676;-76
2021/12/23 21:32:14;;;;;;;9.50;4.93;;;7.70;99.90;;;;;;6757946;88;20193;-76
2021/12/23 21:42:14;;;;;;;8.60;4.93;;;7.90;99.90;;;;;;6757077;88;20184;-76
2021/12/23 21:52:16;;;;;;;10.23;4.95;;;8.20;99.90;;;;;;6756326;88;20230;-77
2021/12/23 22:02:17;;;;;;;8.18;4.60;;;8.10;99.90;;;;;;6755370;87;20188;-76
2021/12/23 22:12:17;;;;;;;9.32;5.20;;;8.40;99.90;;;;;;6739694;88;20619;-76
2021/12/23 22:22:18;;;;;;;10.93;6.18;;;8.00;99.90;;;;;;6739336;88;20177;-76
2021/12/23 22:32:19;;;;;;;12.30;6.22;;;7.50;99.90;;;;;;6739524;88;20748;-76
2021/12/23 22:42:19;;;;;;;11.77;6.32;;;7.20;99.90;;;;;;6739831;88;20192;-76
2021/12/23 22:52:23;;;;;;;14.57;7.15;;;7.10;99.90;;;;;;6738455;88;20339;-78
2021/12/23 23:02:24;;;;;;;12.63;7.10;;;7.10;99.90;;;;;;6738093;88;20762;-78
2021/12/23 23:12:30;;;;;;;14.00;7.50;;;7.10;99.90;;;;;;6738289;88;20659;-77
2021/12/23 23:22:30;;;;;;;13.82;6.95;;;7.20;99.90;;;;;;6738532;88;20365;-77
2021/12/23 23:42:58;;;;;;;11.82;5.35;;;8.00;99.90;;;;;;6753863;88;20172;-77
2021/12/23 23:53:04;;;;;;;8.65;4.95;;;8.60;99.90;;;;;;6754816;88;20682;-76
